Time;durP1;ratioP1;P1;durP2;ratioP2;P2;SDS_P1;SDS_P2;PMS_P1;PMS_P2;Temp;Humidity;BMP_temperature;BMP_pressure;BME280_temperature;BME280_humidity;BME280_pressure;Samples;Min_cycle;Max_cycle;Signal;HPM_P1;HPM_P2
2020/12/21 00:00:25;;;;;;;11.63;10.43;;;;;;;7.37;100.00;99408.69;5013203;28;20263;-80
2020/12/21 00:02:53;;;;;;;11.13;9.50;;;;;;;7.43;100.00;99405.75;5018914;28;20196;-78
2020/12/21 00:05:20;;;;;;;9.43;8.60;;;;;;;7.46;100.00;99410.03;5015030;28;20283;-78
2020/12/21 00:07:48;;;;;;;11.50;10.47;;;;;;;7.41;100.00;99415.47;5011146;28;20234;-78
2020/12/21 00:10:15;;;;;;;11.93;10.80;;;;;;;7.34;100.00;99411.47;5012273;28;20285;-78
2020/12/21 00:12:43;;;;;;;16.83;14.40;;;;;;;7.14;100.00;99416.81;5012703;28;20607;-81
2020/12/21 00:15:10;;;;;;;16.00;14.13;;;;;;;7.05;100.00;99419.84;5012166;28;20273;-78
2020/12/21 00:17:37;;;;;;;15.80;14.20;;;;;;;6.97;100.00;99419.38;5015796;28;20202;-78
2020/12/21 00:20:05;;;;;;;12.80;11.60;;;;;;;7.10;100.00;99412.63;5014884;28;20226;-78
2020/12/21 00:22:33;;;;;;;14.97;13.47;;;;;;;7.12;100.00;99409.91;5011202;28;20272;-79
2020/12/21 00:25:00;;;;;;;13.07;11.67;;;;;;;7.21;100.00;99410.34;5023620;28;20279;-78
2020/12/21 00:27:28;;;;;;;15.53;13.97;;;;;;;7.16;100.00;99409.69;5012910;28;20665;-77
2020/12/21 00:29:55;;;;;;;14.17;12.77;;;;;;;7.25;100.00;99411.03;5011653;28;20208;-78
2020/12/21 00:32:22;;;;;;;12.60;10.80;;;;;;;7.24;100.00;99407.53;5012135;28;20266;-77
2020/12/21 00:34:50;;;;;;;11.80;10.67;;;;;;;7.23;100.00;99408.50;5012472;28;20243;-78
2020/12/21 00:37:17;;;;;;;14.80;13.10;;;;;;;7.18;100.00;99414.88;5008829;28;20292;-78
2020/12/21 00:39:45;;;;;;;15.07;13.57;;;;;;;7.15;100.00;99413.25;5012812;28;20219;-82
2020/12/21 00:42:12;;;;;;;15.30;13.70;;;;;;;7.07;100.00;99410.16;5009728;28;20315;-77
2020/12/21 00:44:40;;;;;;;14.93;13.33;;;;;;;6.99;100.00;99414.88;5013438;28;20572;-81
2020/12/21 00:47:07;;;;;;;13.07;11.77;;;;;;;6.95;100.00;99408.09;5011520;28;20197;-77
2020/12/21 00:49:34;;;;;;;14.50;12.80;;;;;;;6.72;100.00;99416.16;5016913;28;20207;-78
2020/12/21 00:52:02;;;;;;;15.03;13.50;;;;;;;6.71;100.00;99410.06;5015684;28;20293;-77
2020/12/21 00:54:30;;;;;;;15.87;14.17;;;;;;;6.49;100.00;99413.72;5011413;28;20229;-77
2020/12/21 00:56:58;;;;;;;16.63;14.13;;;;;;;6.49;100.00;99419.81;5015231;28;20233;-79
2020/12/21 00:59:25;;;;;;;15.93;14.30;;;;;;;6.50;100.00;99415.41;5013474;28;21955;-78
2020/12/21 01:01:52;;;;;;;19.97;14.60;;;;;;;6.51;100.00;99417.13;5011843;28;20201;-77
2020/12/21 01:04:21;;;;;;;15.60;13.93;;;;;;;6.32;100.00;99423.19;4993998;28;20228;-78
2020/12/21 01:06:53;;;;;;;16.60;14.70;;;;;;;6.30;100.00;99430.28;5013861;28;20236;-78
2020/12/21 01:09:21;;;;;;;17.23;15.13;;;;;;;6.20;100.00;99434.19;5012566;28;20212;-78
2020/12/21 01:11:49;;;;;;;16.03;14.40;;;;;;;6.30;100.00;99440.78;5011283;28;20196;-78
2020/12/21 01:14:16;;;;;;;19.60;15.73;;;;;;;6.28;100.00;99439.16;5025328;28;21156;-77
2020/12/21 01:16:45;;;;;;;16.97;14.03;;;;;;;6.26;100.00;99433.94;5010167;28;20189;-78
2020/12/21 01:19:12;;;;;;;17.23;14.67;;;;;;;6.25;100.00;99426.16;5014064;28;20254;-77
2020/12/21 01:21:39;;;;;;;17.70;14.63;;;;;;;6.30;100.00;99435.53;5013395;28;20192;-77
2020/12/21 01:24:06;;;;;;;17.33;14.70;;;;;;;6.28;100.00;99437.38;5009064;28;20313;-77
2020/12/21 01:26:34;;;;;;;14.07;12.67;;;;;;;6.43;100.00;99441.06;5010802;28;20189;-84
2020/12/21 01:29:02;;;;;;;17.93;14.43;;;;;;;6.50;100.00;99441.69;5012298;28;20288;-78
2020/12/21 01:31:29;;;;;;;16.67;14.90;;;;;;;6.33;100.00;99445.91;5007338;28;20216;-77
2020/12/21 01:34:12;;;;;;;16.67;14.77;;;;;;;6.26;100.00;99433.94;4997278;28;20303;-79
2020/12/21 01:36:40;;;;;;;17.07;14.60;;;;;;;6.29;100.00;99444.31;5009673;28;20278;-77
2020/12/21 01:39:07;;;;;;;19.03;15.23;;;;;;;6.20;100.00;99444.69;5015074;28;20266;-78
2020/12/21 01:41:34;;;;;;;15.83;14.17;;;;;;;6.25;100.00;99448.00;5014449;28;20583;-78
2020/12/21 01:44:02;;;;;;;15.77;14.17;;;;;;;6.22;100.00;99439.41;5010607;28;20211;-79
2020/12/21 01:46:30;;;;;;;12.43;11.03;;;;;;;6.34;100.00;99436.25;5011699;28;20733;-78
2020/12/21 01:48:57;;;;;;;13.47;11.67;;;;;;;6.52;100.00;99434.56;5012410;28;20211;-78
2020/12/21 01:51:28;;;;;;;17.00;14.70;;;;;;;6.59;100.00;99436.88;5027324;28;20208;-77
2020/12/21 01:53:56;;;;;;;10.63;9.53;;;;;;;6.69;100.00;99437.31;5010379;28;20200;-78
2020/12/21 01:56:23;;;;;;;10.80;9.70;;;;;;;6.58;100.00;99429.91;5012209;28;20215;-78
2020/12/21 01:58:53;;;;;;;9.67;8.67;;;;;;;6.69;100.00;99432.91;5011093;28;20197;-79
2020/12/21 02:01:21;;;;;;;14.53;13.13;;;;;;;6.53;100.00;99431.03;5008874;28;20200;-78
2020/12/21 02:03:49;;;;;;;10.80;9.80;;;;;;;6.51;100.00;99433.75;5024133;28;20209;-78
2020/12/21 02:06:17;;;;;;;9.87;8.87;;;;;;;6.64;100.00;99436.66;5006599;28;20199;-80
2020/12/21 02:08:46;;;;;;;12.90;11.47;;;;;;;6.63;100.00;99434.94;5012620;28;20242;-77
2020/12/21 02:11:13;;;;;;;11.47;10.13;;;;;;;6.63;100.00;99432.31;4994741;28;20193;-80
2020/12/21 02:13:42;;;;;;;10.03;9.03;;;;;;;6.65;100.00;99435.75;5008301;28;20505;-77
2020/12/21 02:16:14;;;;;;;10.20;9.20;;;;;;;6.62;100.00;99435.88;5010775;28;20246;-77
2020/12/21 02:18:43;;;;;;;16.73;14.13;;;;;;;6.38;100.00;99437.81;5016380;28;20191;-78
2020/12/21 02:21:11;;;;;;;10.93;9.70;;;;;;;6.51;100.00;99433.75;5005742;28;21100;-81
2020/12/21 02:23:38;;;;;;;11.63;10.43;;;;;;;6.48;100.00;99426.00;5007811;28;20197;-80
2020/12/21 02:26:05;;;;;;;16.80;14.97;;;;;;;6.20;100.00;99431.56;5005980;28;20205;-78
2020/12/21 02:28:33;;;;;;;15.57;14.07;;;;;;;6.24;100.00;99429.69;5009263;28;20254;-82
2020/12/21 02:31:00;;;;;;;13.47;12.07;;;;;;;6.38;100.00;99428.16;5015742;28;20287;-84
2020/12/21 02:33:27;;;;;;;13.43;12.03;;;;;;;6.25;100.00;99424.38;5011926;28;20218;-79
2020/12/21 02:35:54;;;;;;;12.43;11.13;;;;;;;6.19;100.00;99424.66;5012049;28;20227;-81
2020/12/21 02:38:22;;;;;;;14.67;13.00;;;;;;;6.01;100.00;99424.56;5012211;28;20287;-78
2020/12/21 02:40:49;;;;;;;16.00;14.27;;;;;;;5.75;100.00;99420.41;5011496;28;20198;-76
2020/12/21 02:43:19;;;;;;;16.70;14.63;;;;;;;5.81;100.00;99420.16;5012640;28;20222;-80
2020/12/21 02:45:46;;;;;;;15.63;13.93;;;;;;;5.69;100.00;99415.41;5003620;28;20272;-77
2020/12/21 02:48:13;;;;;;;14.70;13.13;;;;;;;5.68;100.00;99418.94;5015370;28;20223;-78
2020/12/21 02:50:42;;;;;;;15.63;14.10;;;;;;;5.83;100.00;99410.44;5015512;28;20274;-82
2020/12/21 02:53:09;;;;;;;14.23;12.73;;;;;;;5.89;100.00;99399.72;5024559;28;20203;-81
2020/12/21 02:55:37;;;;;;;15.50;13.40;;;;;;;5.96;100.00;99409.03;5008485;28;20290;-77
2020/12/21 02:58:04;;;;;;;14.87;12.00;;;;;;;6.06;100.00;99399.88;4992466;28;20202;-78
2020/12/21 03:00:33;;;;;;;11.40;10.23;;;;;;;6.09;100.00;99398.88;5014391;28;20684;-78
2020/12/21 03:03:01;;;;;;;10.90;9.80;;;;;;;6.10;100.00;99403.19;5022849;28;20221;-77
2020/12/21 03:05:28;;;;;;;15.47;12.43;;;;;;;6.13;100.00;99405.69;5011239;28;20205;-77
2020/12/21 03:07:55;;;;;;;15.53;13.40;;;;;;;5.98;100.00;99412.44;5012469;28;20269;-77
2020/12/21 03:10:24;;;;;;;12.00;10.77;;;;;;;6.18;100.00;99412.44;5015359;28;20198;-77
2020/12/21 03:12:52;;;;;;;11.00;9.87;;;;;;;6.26;100.00;99407.69;5014671;28;20250;-77
2020/12/21 03:15:19;;;;;;;9.03;8.13;;;;;;;6.32;100.00;99417.94;5032006;28;20225;-77
2020/12/21 03:17:47;;;;;;;12.30;11.03;;;;;;;6.26;100.00;99410.31;5024779;28;20198;-78
2020/12/21 03:20:14;;;;;;;13.90;12.40;;;;;;;6.04;100.00;99400.81;5012840;28;20273;-82
2020/12/21 03:22:42;;;;;;;13.30;11.90;;;;;;;6.02;100.00;99403.53;5011051;28;20253;-81
2020/12/21 03:25:09;;;;;;;11.47;9.87;;;;;;;6.06;100.00;99412.13;5017248;28;20203;-77
2020/12/21 03:27:36;;;;;;;10.13;8.80;;;;;;;5.90;100.00;99405.81;5014763;28;20257;-80
2020/12/21 03:30:05;;;;;;;10.60;9.60;;;;;;;5.98;100.00;99401.94;5012056;28;20205;-77
2020/12/21 03:32:32;;;;;;;9.13;8.23;;;;;;;5.92;100.00;99407.47;5013304;28;20742;-77
2020/12/21 03:34:59;;;;;;;10.40;9.40;;;;;;;6.01;100.00;99407.06;4997544;28;20987;-77
2020/12/21 03:37:26;;;;;;;9.37;8.47;;;;;;;6.05;100.00;99418.28;5032662;28;20205;-77
2020/12/21 03:39:53;;;;;;;9.40;8.47;;;;;;;5.93;100.00;99419.66;5015049;28;20198;-77
2020/12/21 03:42:20;;;;;;;11.63;10.43;;;;;;;5.89;100.00;99415.47;5026193;28;20206;-77
2020/12/21 03:44:47;;;;;;;10.87;9.77;;;;;;;5.91;100.00;99421.50;5014332;28;20216;-82
2020/12/21 03:47:16;;;;;;;12.57;10.63;;;;;;;5.87;100.00;99417.28;4998091;28;20205;-79
2020/12/21 03:49:43;;;;;;;9.87;8.87;;;;;;;5.84;100.00;99409.50;5014955;28;20211;-77
2020/12/21 03:52:10;;;;;;;12.30;11.00;;;;;;;5.83;100.00;99406.06;5014320;28;20249;-80
2020/12/21 03:54:37;;;;;;;10.70;9.70;;;;;;;5.80;100.00;99414.03;5031345;28;20199;-77
2020/12/21 03:57:04;;;;;;;9.60;8.60;;;;;;;5.81;100.00;99425.41;5016125;28;20200;-80
2020/12/21 03:59:32;;;;;;;13.23;11.87;;;;;;;5.63;100.00;99415.66;5008155;28;20206;-77
2020/12/21 04:01:59;;;;;;;14.83;13.43;;;;;;;5.28;100.00;99407.44;4996294;28;20260;-82
2020/12/21 04:04:27;;;;;;;11.83;10.63;;;;;;;5.44;100.00;99405.06;5013156;28;20291;-79
2020/12/21 04:06:54;;;;;;;15.23;13.23;;;;;;;5.22;100.00;99405.06;5014785;28;20228;-79
2020/12/21 04:09:21;;;;;;;16.50;13.87;;;;;;;5.09;100.00;99398.59;5032439;28;20203;-78
2020/12/21 04:11:48;;;;;;;15.20;12.83;;;;;;;5.15;100.00;99403.59;5018917;28;20195;-77
2020/12/21 04:14:15;;;;;;;15.50;13.17;;;;;;;5.14;100.00;99409.75;5013753;28;20251;-78
2020/12/21 04:16:42;;;;;;;15.80;14.13;;;;;;;5.01;100.00;99398.06;5014627;28;20513;-77
2020/12/21 04:19:09;;;;;;;14.73;13.13;;;;;;;5.18;100.00;99400.88;5013060;28;20216;-77
2020/12/21 04:21:37;;;;;;;14.53;12.77;;;;;;;5.26;100.00;99390.94;5014903;28;20208;-77
2020/12/21 04:24:04;;;;;;;16.00;14.00;;;;;;;5.24;100.00;99387.53;5013618;28;20271;-79
2020/12/21 04:26:31;;;;;;;14.63;13.13;;;;;;;5.23;100.00;99393.69;5006253;28;20211;-77
2020/12/21 04:28:58;;;;;;;12.27;11.03;;;;;;;5.38;100.00;99393.97;5008256;28;20188;-77
2020/12/21 04:31:25;;;;;;;16.07;13.90;;;;;;;5.18;100.00;99403.50;5015160;28;20199;-78
2020/12/21 04:33:52;;;;;;;13.23;11.90;;;;;;;5.20;100.00;99406.03;5013754;28;20210;-77
2020/12/21 04:36:20;;;;;;;15.40;13.00;;;;;;;5.20;100.00;99403.41;5013724;28;20215;-81
2020/12/21 04:38:47;;;;;;;10.80;9.70;;;;;;;5.32;100.00;99387.22;5013232;28;20230;-78
2020/12/21 04:41:14;;;;;;;16.77;14.33;;;;;;;5.13;100.00;99384.50;5014031;28;20662;-79
2020/12/21 04:43:42;;;;;;;16.67;14.50;;;;;;;5.03;100.00;99384.88;5013727;28;20199;-80
2020/12/21 04:46:09;;;;;;;15.90;14.17;;;;;;;5.08;100.00;99377.72;5010685;28;20361;-78
2020/12/21 04:48:42;;;;;;;13.93;12.50;;;;;;;5.18;100.00;99372.06;5012289;28;20216;-77
2020/12/21 04:51:09;;;;;;;14.37;12.87;;;;;;;5.18;100.00;99372.06;5011721;28;20276;-78
2020/12/21 04:53:38;;;;;;;16.17;14.47;;;;;;;5.00;100.00;99367.53;5013440;28;20191;-77
2020/12/21 04:56:07;;;;;;;16.47;14.27;;;;;;;4.96;100.00;99380.81;5014461;28;20687;-77
2020/12/21 04:58:34;;;;;;;16.93;14.30;;;;;;;4.96;100.00;99373.81;5013007;28;20201;-77
2020/12/21 05:01:01;;;;;;;17.03;15.07;;;;;;;5.11;100.00;99381.06;5011623;28;20726;-79
2020/12/21 05:03:29;;;;;;;17.10;14.87;;;;;;;5.19;100.00;99373.75;5010741;28;20264;-75
2020/12/21 05:05:56;;;;;;;16.97;14.93;;;;;;;5.09;100.00;99372.41;5013651;28;20230;-77
2020/12/21 05:08:24;;;;;;;13.93;12.43;;;;;;;5.14;100.00;99369.59;5003058;28;20233;-74
2020/12/21 05:10:59;;;;;;;16.90;15.10;;;;;;;5.04;100.00;99370.88;5011205;28;20201;-78
2020/12/21 05:13:28;;;;;;;17.97;15.00;;;;;;;5.01;100.00;99361.38;5013637;28;20202;-77
2020/12/21 05:15:56;;;;;;;17.23;15.43;;;;;;;5.04;100.00;99369.13;5007025;28;20249;-82
2020/12/21 05:18:24;;;;;;;15.83;13.53;;;;;;;5.16;100.00;99366.03;5012616;28;20206;-77
2020/12/21 05:20:56;;;;;;;13.90;12.47;;;;;;;5.23;100.00;99370.09;5015357;28;20197;-82
2020/12/21 05:23:24;;;;;;;15.40;13.80;;;;;;;5.26;100.00;99364.72;5015033;28;20287;-77
2020/12/21 05:26:00;;;;;;;16.47;13.50;;;;;;;5.36;100.00;99359.13;5025161;28;20206;-77
2020/12/21 05:28:30;;;;;;;16.27;13.73;;;;;;;5.36;100.00;99359.13;4992680;28;20197;-77
2020/12/21 05:30:58;;;;;;;15.90;13.17;;;;;;;5.39;100.00;99364.25;5014233;28;20236;-79
2020/12/21 05:33:26;;;;;;;14.40;11.67;;;;;;;5.44;100.00;99370.16;5026530;28;20204;-80
2020/12/21 05:35:57;;;;;;;17.80;15.33;;;;;;;5.47;100.00;99377.88;5009253;28;20223;-77
2020/12/21 05:38:26;;;;;;;17.10;14.87;;;;;;;5.44;100.00;99383.25;5011632;28;20196;-78
2020/12/21 05:40:54;;;;;;;17.33;14.90;;;;;;;5.40;100.00;99379.91;5008511;28;20230;-77
2020/12/21 05:43:23;;;;;;;13.90;12.43;;;;;;;5.49;100.00;99384.78;5011580;28;20344;-77
2020/12/21 05:46:05;;;;;;;15.87;14.20;;;;;;;5.46;100.00;99382.28;5023023;28;20214;-79
2020/12/21 05:48:33;;;;;;;19.47;16.03;;;;;;;5.24;100.00;99386.69;5013763;28;20191;-77
2020/12/21 05:51:02;;;;;;;13.47;12.07;;;;;;;5.38;100.00;99383.50;5012179;28;20225;-78
2020/12/21 05:53:52;;;;;;;15.80;13.80;;;;;;;5.45;100.00;99379.69;5024965;28;20199;-77
2020/12/21 05:56:21;;;;;;;17.33;15.30;;;;;;;5.37;100.00;99372.16;5009321;28;20223;-77
2020/12/21 05:58:48;;;;;;;16.60;14.87;;;;;;;5.12;100.00;99380.16;5006500;28;20205;-77
2020/12/21 06:01:18;;;;;;;16.93;14.80;;;;;;;5.16;100.00;99396.59;5011581;28;20199;-78
2020/12/21 06:03:47;;;;;;;14.37;12.87;;;;;;;5.26;100.00;99393.56;5012604;28;20222;-81
2020/12/21 06:06:16;;;;;;;16.50;14.30;;;;;;;5.35;100.00;99399.34;5012504;28;20260;-78
2020/12/21 06:08:45;;;;;;;12.20;10.90;;;;;;;5.39;100.00;99408.78;5013207;28;20235;-77
2020/12/21 06:11:15;;;;;;;15.07;13.47;;;;;;;5.42;100.00;99398.19;5008912;28;20537;-77
2020/12/21 06:13:47;;;;;;;15.20;13.27;;;;;;;5.52;100.00;99403.00;5005504;28;20228;-75
2020/12/21 06:16:17;;;;;;;15.80;13.67;;;;;;;5.41;100.00;99399.09;5009770;28;20219;-78
2020/12/21 06:18:55;;;;;;;12.20;10.90;;;;;;;5.51;100.00;99403.91;5011478;28;20197;-76
2020/12/21 06:21:29;;;;;;;14.50;12.97;;;;;;;5.49;100.00;99397.88;5009996;28;20651;-76
2020/12/21 06:23:57;;;;;;;16.23;14.53;;;;;;;5.50;100.00;99388.25;5012038;28;20196;-76
2020/12/21 06:26:33;;;;;;;14.43;12.73;;;;;;;5.56;100.00;99385.34;5007886;28;20211;-74
2020/12/21 06:29:02;;;;;;;12.17;10.97;;;;;;;5.68;100.00;99374.38;5012000;28;20207;-79
2020/12/21 06:31:41;;;;;;;16.00;14.23;;;;;;;5.60;100.00;99386.94;5005200;28;20660;-75
2020/12/21 06:34:10;;;;;;;14.40;12.90;;;;;;;5.62;100.00;99392.97;5012907;28;20221;-75
2020/12/21 06:36:38;;;;;;;18.27;14.33;;;;;;;5.49;100.00;99389.16;5012244;28;20234;-76
2020/12/21 06:39:06;;;;;;;12.00;10.80;;;;;;;5.63;100.00;99381.56;5011356;28;20270;-81
2020/12/21 06:41:33;;;;;;;16.43;14.80;;;;;;;5.39;100.00;99375.56;5012214;28;20207;-77
2020/12/21 06:44:05;;;;;;;15.17;12.40;;;;;;;5.48;100.00;99369.09;5012657;28;20199;-76
2020/12/21 06:46:34;;;;;;;14.23;12.73;;;;;;;5.47;100.00;99357.78;5012727;28;20772;-77
2020/12/21 06:49:08;;;;;;;14.47;12.60;;;;;;;5.48;100.00;99364.69;4993163;28;20646;-79
2020/12/21 06:51:36;;;;;;;15.20;12.53;;;;;;;5.47;100.00;99370.88;5008673;28;20195;-75
2020/12/21 06:54:05;;;;;;;16.97;15.13;;;;;;;5.32;100.00;99373.25;5003187;28;20283;-75
2020/12/21 06:56:32;;;;;;;14.80;12.80;;;;;;;5.46;100.00;99378.78;5011108;28;20580;-75
2020/12/21 06:59:00;;;;;;;15.57;12.60;;;;;;;5.43;100.00;99376.28;5012035;28;20243;-76
2020/12/21 07:01:28;;;;;;;16.00;12.37;;;;;;;5.46;100.00;99365.69;5012709;28;20245;-78
2020/12/21 07:03:56;;;;;;;12.90;11.60;;;;;;;5.44;100.00;99359.66;5012635;28;20193;-76
2020/12/21 07:06:24;;;;;;;15.43;12.50;;;;;;;5.48;100.00;99363.84;5012234;28;20197;-76
2020/12/21 07:08:51;;;;;;;16.50;12.80;;;;;;;5.51;100.00;99363.72;5012358;28;20236;-76
2020/12/21 07:11:19;;;;;;;12.90;11.57;;;;;;;5.51;100.00;99355.84;5012690;28;20210;-75
2020/12/21 07:13:48;;;;;;;15.73;12.73;;;;;;;5.04;100.00;99352.56;5011789;28;20207;-76
2020/12/21 07:16:16;;;;;;;13.37;11.97;;;;;;;5.23;100.00;99338.66;5009472;28;20220;-76
2020/12/21 07:18:44;;;;;;;12.27;10.30;;;;;;;5.34;100.00;99339.97;5010784;28;20242;-75
2020/12/21 07:21:12;;;;;;;13.33;10.80;;;;;;;5.32;100.00;99341.81;5025589;28;20214;-73
2020/12/21 07:23:40;;;;;;;12.77;11.37;;;;;;;5.37;100.00;99351.19;5007534;28;20196;-74
2020/12/21 07:26:09;;;;;;;11.67;10.53;;;;;;;5.33;100.00;99341.78;5007321;28;20200;-73
2020/12/21 07:28:36;;;;;;;13.67;11.97;;;;;;;5.36;100.00;99335.53;5009994;28;20199;-74
2020/12/21 07:31:07;;;;;;;18.17;12.93;;;;;;;5.35;100.00;99337.31;5008128;28;20281;-73
2020/12/21 07:33:36;;;;;;;13.17;11.53;;;;;;;5.37;100.00;99324.97;5009313;28;20670;-74
2020/12/21 07:36:03;;;;;;;13.17;11.77;;;;;;;5.37;100.00;99345.09;5010401;28;20211;-73
2020/12/21 07:38:32;;;;;;;15.97;13.70;;;;;;;5.30;100.00;99341.91;5009964;28;20656;-75
2020/12/21 07:41:00;;;;;;;14.27;12.47;;;;;;;5.32;100.00;99347.91;5009328;28;20198;-74
2020/12/21 07:43:31;;;;;;;12.57;10.93;;;;;;;5.37;100.00;99353.81;5009269;28;20232;-73
2020/12/21 07:46:03;;;;;;;13.20;11.07;;;;;;;5.24;100.00;99356.09;5010530;28;20252;-73
2020/12/21 07:48:32;;;;;;;11.87;10.67;;;;;;;5.16;100.00;99358.19;5006582;28;20214;-73
2020/12/21 07:51:02;;;;;;;10.80;9.80;;;;;;;5.36;100.00;99359.13;5000788;28;20197;-79
2020/12/21 07:53:34;;;;;;;9.50;8.50;;;;;;;5.26;100.00;99356.00;4998709;28;20223;-75
2020/12/21 07:56:03;;;;;;;9.00;8.10;;;;;;;5.34;100.00;99366.19;4979749;28;20228;-74
2020/12/21 07:58:35;;;;;;;10.30;9.27;;;;;;;5.39;100.00;99370.31;5011891;28;20210;-74
2020/12/21 08:01:03;;;;;;;9.30;8.30;;;;;;;5.51;100.00;99368.97;5013952;28;20208;-74
2020/12/21 08:03:31;;;;;;;11.30;9.93;;;;;;;5.40;100.00;99360.69;5009184;28;20282;-75
2020/12/21 08:06:09;;;;;;;11.60;8.97;;;;;;;5.36;100.00;99362.56;5007348;28;20332;-75
2020/12/21 08:08:36;;;;;;;10.50;9.43;;;;;;;5.50;100.00;99367.28;5012217;28;20238;-74
2020/12/21 08:11:06;;;;;;;10.53;9.53;;;;;;;5.45;100.00;99353.50;5012007;28;20284;-74
2020/12/21 08:13:35;;;;;;;10.57;9.47;;;;;;;5.54;100.00;99356.59;5008325;28;20196;-74
2020/12/21 08:16:07;;;;;;;9.20;8.07;;;;;;;5.64;100.00;99351.84;5006991;28;20357;-75
2020/12/21 08:18:34;;;;;;;10.27;9.03;;;;;;;5.63;100.00;99358.84;5029339;28;20621;-74
2020/12/21 08:21:01;;;;;;;11.97;8.47;;;;;;;5.50;100.00;99356.78;5013331;28;20200;-74
2020/12/21 08:23:30;;;;;;;9.40;8.50;;;;;;;5.51;100.00;99368.97;5010307;28;20201;-74
2020/12/21 08:25:58;;;;;;;9.47;8.57;;;;;;;5.59;100.00;99362.50;5012549;28;20218;-74
2020/12/21 08:28:32;;;;;;;10.10;7.70;;;;;;;5.62;100.00;99362.38;5013236;28;20192;-75
2020/12/21 08:31:14;;;;;;;12.67;10.23;;;;;;;5.65;100.00;99356.13;5013340;28;20218;-75
2020/12/21 08:33:44;;;;;;;12.00;9.47;;;;;;;5.65;100.00;99367.47;5013909;28;20226;-74
2020/12/21 08:36:20;;;;;;;8.60;7.00;;;;;;;5.82;100.00;99364.16;5003064;28;20743;-74
2020/12/21 08:38:49;;;;;;;10.07;8.97;;;;;;;5.86;100.00;99371.00;5020639;28;20212;-75
2020/12/21 08:41:16;;;;;;;8.97;7.40;;;;;;;5.83;100.00;99377.22;5014555;28;20675;-76
2020/12/21 08:43:44;;;;;;;9.57;8.57;;;;;;;5.85;100.00;99382.41;5010729;28;20199;-74
2020/12/21 08:46:14;;;;;;;8.20;7.40;;;;;;;5.92;100.00;99380.38;5024860;28;20670;-76
2020/12/21 08:48:45;;;;;;;9.80;8.77;;;;;;;5.94;100.00;99378.53;5007621;28;20199;-78
2020/12/21 08:51:13;;;;;;;10.40;8.60;;;;;;;5.99;100.00;99372.19;5011422;28;20631;-74
2020/12/21 08:53:57;;;;;;;10.03;9.03;;;;;;;5.92;100.00;99377.75;5003695;28;20204;-77
2020/12/21 08:56:24;;;;;;;7.80;7.00;;;;;;;6.06;100.00;99380.66;5023711;28;20216;-77
2020/12/21 08:58:52;;;;;;;9.33;8.33;;;;;;;6.10;100.00;99376.94;5005037;28;20214;-76
2020/12/21 09:01:19;;;;;;;9.13;7.93;;;;;;;5.88;100.00;99379.66;5020240;28;20194;-75
2020/12/21 09:03:47;;;;;;;11.10;9.17;;;;;;;5.83;100.00;99382.44;5008788;28;20640;-76
2020/12/21 09:06:18;;;;;;;10.40;9.20;;;;;;;5.83;100.00;99384.22;5007402;28;20562;-77
2020/12/21 09:08:55;;;;;;;13.37;9.63;;;;;;;5.90;100.00;99380.44;5008828;28;20238;-75
2020/12/21 09:11:22;;;;;;;8.60;7.60;;;;;;;6.10;100.00;99385.69;5016244;28;20195;-74
2020/12/21 09:13:49;;;;;;;8.00;7.17;;;;;;;6.23;100.00;99384.22;5024530;28;20660;-74
2020/12/21 09:16:23;;;;;;;8.87;7.97;;;;;;;6.25;100.00;99390.28;5022976;28;20218;-74
2020/12/21 09:18:51;;;;;;;8.03;7.23;;;;;;;6.34;100.00;99384.59;5018355;28;20225;-73
2020/12/21 09:21:19;;;;;;;9.20;7.50;;;;;;;6.43;100.00;99384.19;5022717;28;20577;-75
2020/12/21 09:23:47;;;;;;;8.73;7.83;;;;;;;6.41;100.00;99379.94;5013450;28;20191;-76
2020/12/21 09:26:14;;;;;;;9.00;7.60;;;;;;;6.49;100.00;99382.19;5002946;28;20215;-75
2020/12/21 09:28:42;;;;;;;8.13;7.33;;;;;;;6.50;100.00;99374.28;5013960;28;20199;-79
2020/12/21 09:31:10;;;;;;;8.83;7.93;;;;;;;6.57;100.00;99374.88;5008847;28;20209;-74
2020/12/21 09:33:38;;;;;;;9.60;7.80;;;;;;;6.49;100.00;99371.69;5011767;28;20283;-73
2020/12/21 09:36:05;;;;;;;9.53;8.57;;;;;;;6.56;100.00;99373.16;5029427;28;20219;-74
2020/12/21 09:38:33;;;;;;;10.33;8.07;;;;;;;6.55;100.00;99366.19;5010358;28;20224;-74
2020/12/21 09:41:00;;;;;;;9.63;7.70;;;;;;;6.60;100.00;99372.06;5016241;28;20274;-74
2020/12/21 09:43:27;;;;;;;7.60;6.20;;;;;;;6.72;100.00;99368.88;5013334;28;20203;-75
2020/12/21 09:45:55;;;;;;;7.40;6.70;;;;;;;6.65;100.00;99360.44;5028671;28;20678;-76
2020/12/21 09:48:22;;;;;;;10.90;9.57;;;;;;;6.66;100.00;99361.28;5024128;28;20203;-76
2020/12/21 09:50:50;;;;;;;17.03;9.10;;;;;;;6.39;100.00;99355.53;5002534;28;20295;-76
2020/12/21 09:53:17;;;;;;;11.90;9.53;;;;;;;6.56;100.00;99349.50;5008649;28;20838;-82
2020/12/21 09:55:44;;;;;;;8.33;7.53;;;;;;;6.75;100.00;99369.59;5012962;28;20204;-76
2020/12/21 09:58:12;;;;;;;8.20;7.40;;;;;;;6.77;100.00;99351.13;5006048;28;20196;-75
2020/12/21 10:00:39;;;;;;;9.90;8.10;;;;;;;6.71;100.00;99356.69;5020969;28;20191;-77
2020/12/21 10:03:06;;;;;;;10.43;8.27;;;;;;;6.52;100.00;99350.56;5016723;28;20254;-76
2020/12/21 10:05:33;;;;;;;7.60;6.90;;;;;;;6.63;100.00;99354.41;5010371;28;20201;-75
2020/12/21 10:08:01;;;;;;;9.43;8.40;;;;;;;6.78;100.00;99347.59;5009573;28;20640;-75
2020/12/21 10:10:29;;;;;;;8.77;7.23;;;;;;;6.84;100.00;99342.91;5008573;28;20196;-76
2020/12/21 10:12:56;;;;;;;8.70;7.73;;;;;;;6.97;100.00;99338.78;5011966;28;20276;-75
2020/12/21 10:15:24;;;;;;;8.17;7.37;;;;;;;7.02;100.00;99337.72;5011913;28;20203;-78
2020/12/21 10:17:51;;;;;;;9.93;7.90;;;;;;;6.89;99.78;99334.81;5013875;28;20298;-83
2020/12/21 10:20:18;;;;;;;10.77;8.07;;;;;;;6.74;100.00;99332.91;5011114;28;20215;-75
2020/12/21 10:22:45;;;;;;;9.83;7.43;;;;;;;6.85;100.00;99339.34;5002556;28;20199;-74
2020/12/21 10:25:13;;;;;;;8.93;7.93;;;;;;;6.89;99.45;99330.41;5019143;28;20259;-76
2020/12/21 10:27:40;;;;;;;7.97;7.23;;;;;;;7.06;99.51;99332.22;5008904;28;20659;-79
2020/12/21 10:30:08;;;;;;;9.10;7.20;;;;;;;7.07;99.29;99318.19;5010316;28;20191;-75
2020/12/21 10:32:35;;;;;;;9.43;7.43;;;;;;;6.96;99.63;99317.84;5012469;28;20926;-74
2020/12/21 10:35:02;;;;;;;9.93;9.00;;;;;;;7.07;99.35;99312.06;5026564;28;20247;-74
2020/12/21 10:37:29;;;;;;;8.30;7.50;;;;;;;7.27;99.41;99302.28;5016897;28;20612;-76
2020/12/21 10:39:56;;;;;;;9.23;8.17;;;;;;;7.35;98.95;99308.03;5004299;28;20195;-75
2020/12/21 10:42:24;;;;;;;10.70;8.57;;;;;;;7.26;98.38;99303.22;5020372;28;20202;-77
2020/12/21 10:44:51;;;;;;;9.07;7.77;;;;;;;7.35;98.56;99294.88;5017369;28;20192;-80
2020/12/21 10:47:18;;;;;;;9.20;7.97;;;;;;;7.46;97.87;99282.03;5007963;28;20224;-76
2020/12/21 10:49:46;;;;;;;10.50;6.77;;;;;;;7.55;97.46;99289.44;4999534;28;20195;-76
2020/12/21 10:52:13;;;;;;;7.00;6.30;;;;;;;7.59;97.15;99288.38;4999996;28;20203;-76
2020/12/21 10:54:40;;;;;;;6.83;6.13;;;;;;;7.65;97.05;99273.19;5016643;28;20220;-75
2020/12/21 10:57:07;;;;;;;8.63;7.30;;;;;;;7.47;96.74;99280.25;5012752;28;20220;-77
2020/12/21 10:59:35;;;;;;;7.07;6.20;;;;;;;7.59;97.55;99282.25;5012508;28;20202;-80
2020/12/21 11:02:02;;;;;;;8.20;6.63;;;;;;;7.68;96.85;99280.94;5004051;28;20204;-77
2020/12/21 11:04:30;;;;;;;7.57;5.73;;;;;;;7.54;97.57;99279.88;5009270;28;20214;-84
2020/12/21 11:06:57;;;;;;;9.07;7.00;;;;;;;7.55;97.18;99267.59;5015790;28;20204;-83
2020/12/21 11:09:24;;;;;;;8.13;7.00;;;;;;;7.46;96.97;99268.91;4998450;28;20196;-77
2020/12/21 11:11:51;;;;;;;7.77;6.53;;;;;;;7.51;97.26;99269.50;5029027;28;20568;-79
2020/12/21 11:14:18;;;;;;;8.80;7.23;;;;;;;7.46;97.41;99268.91;5016021;28;20646;-80
2020/12/21 11:16:51;;;;;;;7.97;7.00;;;;;;;7.45;97.28;99277.69;5001889;28;20643;-81
2020/12/21 11:19:19;;;;;;;9.80;7.97;;;;;;;7.35;97.21;99273.00;5002203;28;20281;-79
2020/12/21 11:21:46;;;;;;;8.20;6.67;;;;;;;7.62;96.87;99273.34;5015718;28;20678;-83
2020/12/21 11:24:13;;;;;;;12.27;8.33;;;;;;;7.71;95.39;99275.53;5029478;28;20201;-79
2020/12/21 11:26:40;;;;;;;7.63;6.83;;;;;;;7.81;95.44;99274.09;5010881;28;20764;-75
2020/12/21 11:29:07;;;;;;;6.63;5.87;;;;;;;7.94;95.12;99275.19;5011180;28;20209;-75